createdAt,value
2019-03-08T00:00:04.154Z,99.99
2019-03-08T00:01:04.159Z,99.99
2019-03-08T00:02:04.180Z,99.99
2019-03-08T00:03:04.208Z,99.99
2019-03-08T00:04:04.232Z,99.99
2019-03-08T00:05:04.267Z,99.99
2019-03-08T00:06:04.286Z,99.99
2019-03-08T00:07:04.302Z,99.99
2019-03-08T00:08:04.330Z,99.99
2019-03-08T00:09:04.358Z,99.99
2019-03-08T00:10:04.376Z,99.99
2019-03-08T00:11:04.420Z,99.99
2019-03-08T00:12:04.425Z,99.99
2019-03-08T00:13:05.411Z,99.99
2019-03-08T00:14:04.470Z,99.99
2019-03-08T00:15:04.497Z,99.99
2019-03-08T00:16:04.520Z,99.99
2019-03-08T00:17:04.560Z,99.99
2019-03-08T00:18:04.587Z,99.99
2019-03-08T00:19:04.595Z,99.99
2019-03-08T00:20:04.619Z,99.99
2019-03-08T00:21:04.647Z,99.99
2019-03-08T00:22:04.672Z,99.99
2019-03-08T00:23:04.696Z,99.99
2019-03-08T00:24:04.712Z,99.99
2019-03-08T00:25:04.735Z,99.99
2019-03-08T00:26:04.762Z,99.99
2019-03-08T00:27:04.788Z,99.99
2019-03-08T00:28:04.828Z,99.99
2019-03-08T00:29:04.834Z,99.99
2019-03-08T00:30:04.856Z,99.99
2019-03-08T00:31:04.881Z,99.99
2019-03-08T00:32:04.907Z,99.99
2019-03-08T00:33:04.931Z,99.99
2019-03-08T00:34:04.952Z,99.99
2019-03-08T00:35:04.977Z,99.99
2019-03-08T00:36:05.007Z,99.99
2019-03-08T00:37:05.031Z,99.99
2019-03-08T00:38:05.055Z,99.99
2019-03-08T00:39:05.074Z,99.99
2019-03-08T00:40:05.105Z,99.99
2019-03-08T00:41:05.125Z,99.99
2019-03-08T00:42:05.153Z,99.99
2019-03-08T00:43:05.170Z,99.99
2019-03-08T00:44:05.197Z,99.99
2019-03-08T00:45:05.219Z,99.99
2019-03-08T00:46:05.241Z,99.99
2019-03-08T00:47:05.271Z,99.99
2019-03-08T00:48:05.291Z,99.99
2019-03-08T00:49:05.318Z,99.99
2019-03-08T00:50:05.340Z,99.99
2019-03-08T00:51:05.364Z,99.99
2019-03-08T00:52:05.389Z,99.99
2019-03-08T00:53:05.415Z,99.99
2019-03-08T00:54:05.445Z,99.99
2019-03-08T00:55:05.478Z,99.99
2019-03-08T00:56:05.483Z,99.99
2019-03-08T00:57:05.506Z,99.99
2019-03-08T00:58:05.539Z,99.99
2019-03-08T00:59:05.557Z,99.99
2019-03-08T01:00:05.581Z,99.99
2019-03-08T01:01:05.601Z,99.99
2019-03-08T01:02:05.629Z,99.99
2019-03-08T01:03:05.681Z,99.99
2019-03-08T01:04:05.681Z,99.99
2019-03-08T01:05:05.698Z,99.99
2019-03-08T01:06:05.722Z,99.99
2019-03-08T01:07:05.752Z,99.99
2019-03-08T01:08:05.779Z,99.99
2019-03-08T01:09:05.801Z,99.99
2019-03-08T01:10:05.821Z,99.99
2019-03-08T01:11:05.861Z,99.99
2019-03-08T01:12:05.868Z,99.99
2019-03-08T01:13:05.889Z,99.99
2019-03-08T01:14:05.920Z,99.99
2019-03-08T01:15:05.944Z,99.99
2019-03-08T01:16:05.962Z,99.99
2019-03-08T01:17:05.986Z,99.99
2019-03-08T01:18:06.010Z,99.99
2019-03-08T01:19:06.034Z,99.99
2019-03-08T01:20:06.058Z,99.99
2019-03-08T01:21:06.089Z,99.99
2019-03-08T01:22:06.106Z,99.99
2019-03-08T01:23:06.130Z,99.99
2019-03-08T01:24:06.160Z,99.99
2019-03-08T01:25:06.180Z,99.99
2019-03-08T01:26:06.202Z,99.99
2019-03-08T01:27:06.241Z,99.99
2019-03-08T01:28:06.261Z,99.99
2019-03-08T01:29:06.283Z,99.99
2019-03-08T01:30:06.300Z,99.99
2019-03-08T01:31:06.323Z,99.99
2019-03-08T01:32:06.346Z,99.99
2019-03-08T01:33:06.371Z,99.99
2019-03-08T01:34:06.393Z,99.99
2019-03-08T01:35:06.421Z,99.99
2019-03-08T01:36:06.442Z,99.99
2019-03-08T01:37:06.466Z,99.99
2019-03-08T01:38:06.489Z,99.99
2019-03-08T01:39:06.564Z,99.99
2019-03-08T01:40:06.538Z,99.99
2019-03-08T01:41:06.562Z,99.99
2019-03-08T01:42:06.587Z,99.99
2019-03-08T01:43:06.620Z,99.99
2019-03-08T01:44:06.656Z,99.99
2019-03-08T01:45:06.660Z,99.99
2019-03-08T01:46:06.683Z,99.99
2019-03-08T01:47:06.745Z,99.99
2019-03-08T01:48:06.729Z,99.99
2019-03-08T01:49:06.753Z,99.99
2019-03-08T01:50:06.780Z,99.99
2019-03-08T01:51:06.803Z,99.99
2019-03-08T01:52:06.828Z,99.99
2019-03-08T01:53:06.859Z,99.99
2019-03-08T01:54:06.875Z,99.99
2019-03-08T01:55:06.907Z,99.99
2019-03-08T01:56:06.925Z,99.99
2019-03-08T01:57:06.946Z,99.99
2019-03-08T01:58:06.972Z,99.99
2019-03-08T01:59:06.998Z,99.99
2019-03-08T02:00:07.031Z,99.99
2019-03-08T02:01:07.041Z,99.99
2019-03-08T02:02:07.069Z,99.99
2019-03-08T02:03:07.089Z,99.99
2019-03-08T02:04:07.119Z,99.99
2019-03-08T02:05:07.138Z,99.99
2019-03-08T02:06:07.180Z,99.99
2019-03-08T02:07:07.189Z,99.99
2019-03-08T02:08:07.213Z,99.99
2019-03-08T02:09:07.257Z,99.99
2019-03-08T02:10:07.258Z,99.99
2019-03-08T02:11:07.282Z,99.99
2019-03-08T02:12:07.309Z,99.99
2019-03-08T02:13:07.337Z,99.99
2019-03-08T02:14:07.362Z,99.99
2019-03-08T02:15:07.380Z,99.99
2019-03-08T02:16:07.403Z,99.99
2019-03-08T02:17:07.425Z,99.99
2019-03-08T02:18:07.452Z,99.99
2019-03-08T02:19:07.478Z,99.99
2019-03-08T02:20:07.497Z,99.99
2019-03-08T02:21:07.538Z,99.99
2019-03-08T02:22:07.544Z,99.99
2019-03-08T02:23:07.571Z,99.99
2019-03-08T02:24:07.594Z,99.99
2019-03-08T02:25:07.615Z,99.99
2019-03-08T02:26:07.645Z,99.99
2019-03-08T02:27:07.664Z,99.99
2019-03-08T02:28:08.615Z,99.99
2019-03-08T02:29:07.720Z,99.99
2019-03-08T02:30:07.739Z,99.99
2019-03-08T02:31:07.768Z,99.99
2019-03-08T02:32:07.786Z,99.99
2019-03-08T02:33:07.806Z,99.99
2019-03-08T02:34:07.834Z,99.99
2019-03-08T02:35:07.857Z,99.99
2019-03-08T02:36:07.890Z,99.99
2019-03-08T02:37:07.901Z,99.99
2019-03-08T02:38:07.929Z,99.99
2019-03-08T02:39:07.953Z,99.99
2019-03-08T02:40:07.981Z,99.99
2019-03-08T02:41:08.000Z,99.99
2019-03-08T02:42:08.031Z,99.99
2019-03-08T02:43:08.048Z,99.99
2019-03-08T02:44:08.081Z,99.99
2019-03-08T02:45:08.104Z,99.99
2019-03-08T02:46:08.117Z,99.99
2019-03-08T02:47:08.143Z,99.99
2019-03-08T02:48:08.164Z,99.99
2019-03-08T02:49:08.191Z,99.99
2019-03-08T02:50:08.221Z,99.99
2019-03-08T02:51:08.238Z,99.99
2019-03-08T02:52:08.262Z,99.99
2019-03-08T02:53:08.286Z,99.99
2019-03-08T02:54:08.316Z,99.99
2019-03-08T02:55:08.334Z,99.99
2019-03-08T02:56:08.357Z,99.99
2019-03-08T02:57:08.386Z,99.99
2019-03-08T02:58:08.405Z,99.99
2019-03-08T02:59:08.429Z,99.99
2019-03-08T03:00:08.451Z,99.99
2019-03-08T03:01:08.476Z,99.99
2019-03-08T03:02:08.500Z,99.99
2019-03-08T03:03:08.525Z,99.99
2019-03-08T03:04:08.552Z,99.99
2019-03-08T03:05:08.569Z,99.99
2019-03-08T03:06:08.603Z,99.99
2019-03-08T03:07:08.619Z,99.99
2019-03-08T03:08:08.645Z,99.99
2019-03-08T03:09:08.666Z,99.99
2019-03-08T03:10:08.693Z,99.99
2019-03-08T03:11:08.765Z,99.99
2019-03-08T03:12:08.741Z,99.99
2019-03-08T03:13:08.759Z,99.99
2019-03-08T03:14:08.786Z,99.99
2019-03-08T03:15:08.810Z,99.99
2019-03-08T03:16:08.843Z,99.99
2019-03-08T03:17:08.862Z,99.99
2019-03-08T03:18:08.881Z,99.99
2019-03-08T03:19:08.910Z,99.99
2019-03-08T03:20:08.930Z,99.99
2019-03-08T03:21:08.959Z,99.99
2019-03-08T03:22:08.981Z,99.99
2019-03-08T03:23:08.998Z,99.99
2019-03-08T03:24:09.027Z,99.99
2019-03-08T03:25:09.049Z,99.99
2019-03-08T03:26:09.079Z,99.99
2019-03-08T03:27:09.103Z,99.99
2019-03-08T03:28:09.119Z,99.99
2019-03-08T03:29:09.139Z,99.99
2019-03-08T03:30:09.169Z,99.99
2019-03-08T03:31:09.191Z,99.99
2019-03-08T03:32:09.231Z,99.99
2019-03-08T03:33:09.276Z,99.99
2019-03-08T03:34:09.263Z,99.99
2019-03-08T03:35:09.285Z,99.99
2019-03-08T03:36:09.310Z,99.99
2019-03-08T03:37:09.334Z,99.99
2019-03-08T03:38:09.357Z,99.99
2019-03-08T03:39:09.382Z,99.99
2019-03-08T03:40:09.411Z,99.99
2019-03-08T03:41:09.432Z,99.99
2019-03-08T03:42:09.456Z,99.99
2019-03-08T03:43:09.479Z,99.99
2019-03-08T03:44:09.499Z,99.99
2019-03-08T03:45:09.521Z,99.99
2019-03-08T03:46:09.550Z,99.99
2019-03-08T03:47:09.579Z,99.99
2019-03-08T03:48:09.599Z,99.99
2019-03-08T03:49:09.618Z,99.99
2019-03-08T03:50:09.644Z,99.99
2019-03-08T03:51:09.668Z,99.99
2019-03-08T03:52:09.692Z,99.99
2019-03-08T03:53:09.713Z,99.99
2019-03-08T03:54:09.746Z,99.99
2019-03-08T03:55:09.765Z,99.99
2019-03-08T03:56:09.788Z,99.99
2019-03-08T03:57:09.809Z,99.99
2019-03-08T03:58:09.833Z,99.99
2019-03-08T03:59:09.860Z,99.99
2019-03-08T04:00:11.759Z,99.99
2019-03-08T04:01:09.908Z,99.99
2019-03-08T04:02:09.931Z,99.99
2019-03-08T04:03:09.955Z,99.99
2019-03-08T04:04:09.978Z,99.99
2019-03-08T04:05:10.009Z,99.99
2019-03-08T04:06:10.033Z,99.99
2019-03-08T04:07:10.050Z,99.99
2019-03-08T04:08:10.073Z,99.99
2019-03-08T04:09:10.095Z,99.99
2019-03-08T04:10:10.124Z,99.99
2019-03-08T04:11:10.150Z,99.99
2019-03-08T04:12:10.172Z,99.99
2019-03-08T04:13:10.196Z,99.99
2019-03-08T04:14:10.216Z,99.99
2019-03-08T04:15:10.240Z,99.99
2019-03-08T04:16:10.270Z,99.99
2019-03-08T04:17:10.287Z,99.99
2019-03-08T04:18:10.312Z,99.99
2019-03-08T04:19:10.335Z,99.99
2019-03-08T04:20:10.360Z,99.99
2019-03-08T04:21:10.385Z,99.99
2019-03-08T04:22:10.407Z,99.99
2019-03-08T04:23:10.432Z,99.99
2019-03-08T04:24:10.457Z,99.99
2019-03-08T04:25:10.481Z,99.99
2019-03-08T04:26:10.507Z,99.99
2019-03-08T04:27:10.530Z,99.99
2019-03-08T04:28:10.552Z,99.99
2019-03-08T04:29:10.577Z,99.99
2019-03-08T04:30:10.599Z,99.99
2019-03-08T04:31:10.628Z,99.99
2019-03-08T04:32:10.655Z,99.99
2019-03-08T04:33:10.677Z,99.99
2019-03-08T04:34:10.693Z,99.99
2019-03-08T04:35:10.721Z,99.99
2019-03-08T04:36:10.745Z,99.99
2019-03-08T04:37:10.769Z,99.99
2019-03-08T04:38:10.810Z,99.99
2019-03-08T04:39:10.816Z,99.99
2019-03-08T04:40:10.845Z,99.99
2019-03-08T04:41:10.867Z,99.99
2019-03-08T04:42:10.888Z,99.99
2019-03-08T04:43:10.912Z,99.99
2019-03-08T04:44:10.944Z,99.99
2019-03-08T04:45:10.961Z,99.99
2019-03-08T04:46:10.990Z,99.99
2019-03-08T04:47:11.008Z,99.99
2019-03-08T04:48:11.037Z,99.99
2019-03-08T04:49:11.052Z,99.99
2019-03-08T04:50:11.077Z,99.99
2019-03-08T04:51:11.102Z,99.99
2019-03-08T04:52:11.136Z,99.99
2019-03-08T04:53:11.162Z,99.99
2019-03-08T04:54:11.176Z,99.99
2019-03-08T04:55:11.204Z,99.99
2019-03-08T04:56:11.224Z,99.99
2019-03-08T04:57:11.246Z,99.99
2019-03-08T04:58:11.281Z,99.99
2019-03-08T04:59:11.296Z,99.99
2019-03-08T05:00:11.324Z,99.99
2019-03-08T05:01:11.346Z,99.99
2019-03-08T05:02:11.373Z,99.99
2019-03-08T05:03:11.393Z,99.99
2019-03-08T05:04:11.436Z,99.99
2019-03-08T05:05:11.440Z,99.99
2019-03-08T05:06:11.463Z,99.99
2019-03-08T05:07:11.487Z,99.99
2019-03-08T05:08:11.513Z,99.99
2019-03-08T05:09:11.539Z,99.99
2019-03-08T05:10:11.615Z,99.99
2019-03-08T05:11:11.585Z,99.99
2019-03-08T05:12:11.616Z,99.99
2019-03-08T05:13:11.637Z,99.99
2019-03-08T05:14:11.657Z,99.99
2019-03-08T05:15:11.688Z,99.99
2019-03-08T05:16:11.705Z,99.99
2019-03-08T05:17:11.728Z,99.99
2019-03-08T05:18:11.758Z,99.99
2019-03-08T05:19:11.775Z,99.99
2019-03-08T05:20:11.810Z,99.99
2019-03-08T05:21:11.824Z,99.99
2019-03-08T05:22:11.846Z,99.99
2019-03-08T05:23:11.870Z,99.99
2019-03-08T05:24:11.895Z,99.99
2019-03-08T05:25:11.921Z,99.99
2019-03-08T05:26:11.950Z,99.99
2019-03-08T05:27:11.965Z,99.99
2019-03-08T05:28:12.001Z,99.99
2019-03-08T05:29:12.016Z,99.99
2019-03-08T05:30:12.040Z,99.99
2019-03-08T05:31:12.065Z,99.99
2019-03-08T05:32:12.092Z,99.99
2019-03-08T05:33:12.110Z,99.99
2019-03-08T05:34:12.138Z,99.99
2019-03-08T05:35:12.162Z,99.99
2019-03-08T05:36:12.184Z,99.99
2019-03-08T05:37:12.210Z,99.99
2019-03-08T05:38:12.228Z,99.99
2019-03-08T05:39:12.253Z,99.99
2019-03-08T05:40:12.278Z,99.99
2019-03-08T05:41:12.300Z,99.99
2019-03-08T05:42:12.327Z,99.99
2019-03-08T05:43:12.348Z,99.99
2019-03-08T05:44:12.378Z,99.99
2019-03-08T05:45:12.408Z,99.99
2019-03-08T05:46:12.425Z,99.99
2019-03-08T05:47:12.448Z,99.99
2019-03-08T05:48:12.469Z,99.99
2019-03-08T05:49:12.502Z,99.99
2019-03-08T05:50:12.524Z,99.99
2019-03-08T05:51:12.545Z,99.99
2019-03-08T05:52:12.565Z,99.99
2019-03-08T05:53:12.587Z,99.99
2019-03-08T05:54:12.615Z,99.99
2019-03-08T05:55:12.636Z,99.99
2019-03-08T05:56:12.663Z,99.99
2019-03-08T05:57:12.686Z,99.99
2019-03-08T05:58:12.708Z,99.99
2019-03-08T05:59:12.738Z,99.99
2019-03-08T06:00:12.759Z,99.99
2019-03-08T06:01:12.779Z,99.99
2019-03-08T06:02:12.814Z,99.99
2019-03-08T06:03:12.837Z,99.99
2019-03-08T06:04:12.853Z,99.99
2019-03-08T06:05:12.878Z,99.99
2019-03-08T06:06:12.900Z,99.99
2019-03-08T06:07:12.942Z,99.99
2019-03-08T06:08:12.951Z,99.99
2019-03-08T06:09:12.975Z,99.99
2019-03-08T06:10:12.995Z,99.99
2019-03-08T06:11:13.029Z,99.99
2019-03-08T06:12:13.043Z,99.99
2019-03-08T06:13:13.070Z,99.99
2019-03-08T06:14:13.100Z,99.99
2019-03-08T06:15:13.118Z,99.99
2019-03-08T06:16:13.141Z,99.99
2019-03-08T06:17:13.163Z,99.99
2019-03-08T06:18:13.189Z,99.99
2019-03-08T06:19:13.212Z,99.99
2019-03-08T06:20:13.236Z,99.99
2019-03-08T06:21:13.259Z,99.99
2019-03-08T06:22:13.285Z,99.99
2019-03-08T06:23:13.306Z,99.99
2019-03-08T06:24:13.334Z,99.99
2019-03-08T06:25:13.360Z,99.99
2019-03-08T06:26:13.384Z,99.99
2019-03-08T06:27:13.406Z,99.99
2019-03-08T06:28:13.430Z,99.99
2019-03-08T06:29:13.452Z,99.99
2019-03-08T06:30:13.478Z,99.99
2019-03-08T06:31:13.499Z,99.99
2019-03-08T06:32:13.523Z,99.99
2019-03-08T06:33:13.546Z,99.99
2019-03-08T06:34:13.573Z,99.99
2019-03-08T06:35:13.594Z,99.99
2019-03-08T06:36:13.620Z,99.99
2019-03-08T06:37:13.718Z,99.99
2019-03-08T06:38:13.682Z,99.99
2019-03-08T06:39:13.700Z,99.99
2019-03-08T06:40:13.716Z,99.99
2019-03-08T06:41:13.742Z,99.99
2019-03-08T06:42:13.772Z,99.99
2019-03-08T06:43:13.804Z,99.99
2019-03-08T06:44:13.819Z,99.99
2019-03-08T06:45:13.835Z,99.99
2019-03-08T06:46:13.857Z,99.99
2019-03-08T06:47:13.881Z,99.99
2019-03-08T06:48:13.928Z,99.99
2019-03-08T06:49:13.929Z,99.99
2019-03-08T06:50:13.952Z,99.99
2019-03-08T06:51:13.977Z,99.99
2019-03-08T06:52:14.008Z,99.99
2019-03-08T06:53:14.026Z,99.99
2019-03-08T06:54:14.049Z,99.99
2019-03-08T06:55:14.076Z,99.99
2019-03-08T06:56:14.100Z,99.99
2019-03-08T06:57:14.127Z,99.99
2019-03-08T06:58:14.151Z,99.99
2019-03-08T06:59:14.172Z,99.99
2019-03-08T07:00:14.196Z,99.99
2019-03-08T07:01:14.225Z,99.99
2019-03-08T07:02:14.250Z,99.99
2019-03-08T07:03:14.268Z,99.99
2019-03-08T07:04:14.298Z,99.99
2019-03-08T07:05:14.316Z,99.99
2019-03-08T07:06:14.337Z,99.99
2019-03-08T07:07:14.365Z,99.99
2019-03-08T07:08:14.395Z,99.99
2019-03-08T07:09:14.411Z,99.99
2019-03-08T07:10:14.439Z,99.99
2019-03-08T07:11:14.463Z,99.99
2019-03-08T07:12:14.524Z,99.99
2019-03-08T07:13:14.515Z,99.99
2019-03-08T07:14:14.535Z,99.99
2019-03-08T07:15:14.558Z,99.99
2019-03-08T07:16:14.946Z,99.99
2019-03-08T07:17:14.604Z,99.99
2019-03-08T07:18:14.625Z,99.99
2019-03-08T07:19:14.650Z,99.99
2019-03-08T07:20:14.777Z,99.99
2019-03-08T07:21:14.699Z,99.99
2019-03-08T07:22:14.724Z,99.99
2019-03-08T07:23:14.748Z,99.99
2019-03-08T07:24:14.772Z,99.99
2019-03-08T07:25:14.794Z,99.99
2019-03-08T07:26:14.820Z,99.99
2019-03-08T07:27:14.852Z,99.99
2019-03-08T07:28:14.871Z,99.99
2019-03-08T07:29:14.890Z,99.99
2019-03-08T07:30:14.917Z,99.99
2019-03-08T07:31:14.942Z,99.99
2019-03-08T07:32:14.969Z,99.99
2019-03-08T07:33:14.988Z,99.99
2019-03-08T07:34:15.013Z,99.99
2019-03-08T07:35:15.035Z,99.99
2019-03-08T07:36:15.063Z,99.99
2019-03-08T07:37:15.088Z,99.99
2019-03-08T07:38:15.108Z,99.99
2019-03-08T07:39:15.138Z,99.99
2019-03-08T07:40:15.851Z,99.99
2019-03-08T07:41:15.188Z,99.99
2019-03-08T07:42:15.206Z,99.99
2019-03-08T07:43:15.230Z,99.99
2019-03-08T07:44:15.252Z,99.99
2019-03-08T07:45:15.311Z,99.99
2019-03-08T07:46:15.303Z,99.99
2019-03-08T07:47:15.327Z,99.99
2019-03-08T07:48:15.348Z,99.99
2019-03-08T07:49:15.375Z,99.99
2019-03-08T07:50:15.403Z,99.99
2019-03-08T07:51:15.424Z,99.99
2019-03-08T07:52:15.448Z,99.99
2019-03-08T07:53:15.472Z,99.99
2019-03-08T07:54:15.492Z,99.99
2019-03-08T07:55:15.520Z,99.99
2019-03-08T07:56:15.549Z,99.99
2019-03-08T07:57:15.566Z,99.99
2019-03-08T07:58:15.592Z,99.99
2019-03-08T07:59:15.624Z,99.99
2019-03-08T08:00:15.640Z,99.99
2019-03-08T08:01:15.666Z,99.99
2019-03-08T08:02:15.689Z,99.99
2019-03-08T08:03:16.320Z,99.99
2019-03-08T08:04:18.361Z,99.99
2019-03-08T08:05:19.040Z,99.99
2019-03-08T08:06:15.787Z,99.99
2019-03-08T08:07:15.828Z,99.99
2019-03-08T08:08:15.837Z,99.99
2019-03-08T08:09:15.859Z,99.99
2019-03-08T08:10:15.884Z,99.99
2019-03-08T08:11:15.915Z,99.99
2019-03-08T08:12:15.942Z,99.99
2019-03-08T08:13:15.958Z,99.99
2019-03-08T08:14:15.986Z,99.99
2019-03-08T08:15:16.011Z,99.99
2019-03-08T08:16:16.036Z,99.99
2019-03-08T08:17:16.063Z,99.99
2019-03-08T08:18:16.085Z,99.99
2019-03-08T08:19:16.117Z,99.99
2019-03-08T08:20:16.790Z,99.99
2019-03-08T08:21:16.157Z,99.99
2019-03-08T08:22:16.182Z,99.99
2019-03-08T08:23:16.207Z,99.99
2019-03-08T08:24:16.238Z,99.99
2019-03-08T08:25:16.257Z,99.99
2019-03-08T08:26:16.290Z,99.99
2019-03-08T08:27:16.306Z,99.99
2019-03-08T08:28:16.335Z,99.99
2019-03-08T08:29:16.357Z,99.99
2019-03-08T08:30:16.385Z,99.99
2019-03-08T08:31:16.415Z,99.99
2019-03-08T08:32:16.433Z,98.22
2019-03-08T08:33:16.792Z,94.65
2019-03-08T08:34:16.485Z,92.84
2019-03-08T08:35:16.518Z,92.17
2019-03-08T08:36:16.534Z,95.22
2019-03-08T08:37:16.559Z,98.69
2019-03-08T08:38:16.594Z,99.99
2019-03-08T08:39:16.619Z,99.99
2019-03-08T08:40:16.640Z,99.99
2019-03-08T08:41:16.664Z,99.99
2019-03-08T08:42:16.691Z,99.99
2019-03-08T08:43:16.720Z,99.99
2019-03-08T08:44:16.746Z,99.99
2019-03-08T08:45:16.772Z,99.99
2019-03-08T08:46:16.801Z,99.99
2019-03-08T08:47:16.823Z,99.99
2019-03-08T08:48:16.849Z,99.99
2019-03-08T08:49:16.877Z,99.99
2019-03-08T08:50:16.902Z,99.99
2019-03-08T08:51:16.939Z,99.99
2019-03-08T08:52:16.997Z,99.99
2019-03-08T08:53:16.982Z,99.99
2019-03-08T08:54:17.008Z,99.99
2019-03-08T08:55:17.033Z,99.99
2019-03-08T08:56:17.058Z,99.99
2019-03-08T08:57:17.087Z,98.27
2019-03-08T08:58:17.153Z,94.60
2019-03-08T08:59:17.146Z,95.84
2019-03-08T09:00:17.164Z,97.22
2019-03-08T09:01:17.192Z,99.03
2019-03-08T09:02:17.222Z,99.99
2019-03-08T09:03:17.245Z,99.99
2019-03-08T09:04:17.270Z,99.99
2019-03-08T09:05:17.299Z,99.99
2019-03-08T09:06:17.323Z,99.99
2019-03-08T09:07:17.349Z,99.99
2019-03-08T09:08:17.378Z,99.99
2019-03-08T09:09:17.404Z,99.99
2019-03-08T09:10:17.427Z,99.99
2019-03-08T09:11:17.457Z,99.99
2019-03-08T09:12:17.490Z,99.99
2019-03-08T09:13:17.509Z,99.99
2019-03-08T09:14:17.533Z,99.99
2019-03-08T09:15:17.559Z,98.60
2019-03-08T09:16:17.594Z,99.08
2019-03-08T09:17:17.626Z,99.99
2019-03-08T09:18:17.640Z,99.99
2019-03-08T09:19:17.666Z,99.99
2019-03-08T09:20:17.690Z,99.99
2019-03-08T09:21:17.718Z,99.99
2019-03-08T09:22:17.740Z,99.99
2019-03-08T09:23:17.770Z,99.99
2019-03-08T09:24:17.793Z,99.99
2019-03-08T09:25:17.833Z,99.99
2019-03-08T09:26:17.851Z,99.99
2019-03-08T09:27:17.891Z,99.99
2019-03-08T09:28:17.899Z,99.99
2019-03-08T09:29:17.925Z,99.99
2019-03-08T09:30:17.950Z,99.99
2019-03-08T09:31:17.977Z,99.99
2019-03-08T09:32:18.002Z,99.99
2019-03-08T09:33:18.030Z,99.99
2019-03-08T09:34:18.050Z,99.99
2019-03-08T09:35:18.079Z,99.99
2019-03-08T09:36:18.104Z,99.99
2019-03-08T09:37:18.138Z,99.99
2019-03-08T09:38:18.155Z,94.12
2019-03-08T09:39:18.181Z,89.83
2019-03-08T09:40:18.209Z,86.53
2019-03-08T09:42:00.848Z,82.31
2019-03-08T09:43:00.870Z,80.55
2019-03-08T09:44:00.901Z,81.13
2019-03-08T09:45:00.929Z,81.79
2019-03-08T09:46:00.959Z,81.07
2019-03-08T09:47:00.981Z,79.64
2019-03-08T09:48:01.017Z,79.16
2019-03-08T09:49:01.035Z,80.85
2019-03-08T09:50:01.068Z,84.00
2019-03-08T09:51:01.096Z,82.81
2019-03-08T09:52:03.746Z,82.28
2019-03-08T09:53:01.151Z,81.03
2019-03-08T09:54:01.732Z,80.80
2019-03-08T09:55:01.216Z,82.46
2019-03-08T09:56:01.245Z,81.22
2019-03-08T09:57:01.276Z,78.43
2019-03-08T09:58:01.297Z,77.34
2019-03-08T09:59:01.327Z,78.01
2019-03-08T10:00:01.761Z,75.95
2019-03-08T10:01:01.393Z,74.70
2019-03-08T10:02:01.415Z,73.99
2019-03-08T10:03:01.457Z,74.95
2019-03-08T10:04:01.476Z,75.76
2019-03-08T10:05:01.512Z,75.68
2019-03-08T10:06:01.545Z,77.94
2019-03-08T10:07:01.572Z,76.92
2019-03-08T10:08:01.606Z,76.35
2019-03-08T10:09:01.640Z,75.01
2019-03-08T10:10:01.668Z,73.61
2019-03-08T10:11:01.701Z,72.60
2019-03-08T10:12:01.732Z,71.73
2019-03-08T10:13:01.763Z,69.64
2019-03-08T10:14:01.796Z,69.48
2019-03-08T10:15:01.834Z,68.13
2019-03-08T10:16:01.862Z,67.50
2019-03-08T10:17:01.893Z,66.89
2019-03-08T10:18:01.924Z,66.47
2019-03-08T10:19:01.964Z,67.21
2019-03-08T10:20:01.993Z,65.71
2019-03-08T10:21:02.023Z,64.59
2019-03-08T10:22:02.066Z,63.26
2019-03-08T10:23:02.091Z,62.01
2019-03-08T10:24:02.977Z,62.17
2019-03-08T10:25:02.158Z,64.63
2019-03-08T10:26:02.196Z,64.95
2019-03-08T10:27:02.225Z,63.89
2019-03-08T10:28:02.267Z,65.23
2019-03-08T10:29:02.291Z,67.62
2019-03-08T10:30:02.335Z,69.87
2019-03-08T10:31:02.361Z,69.05
2019-03-08T10:32:02.401Z,69.78
2019-03-08T10:33:02.437Z,71.75
2019-03-08T10:34:02.462Z,72.86
2019-03-08T10:35:02.497Z,74.54
2019-03-08T10:36:02.529Z,76.06
2019-03-08T10:37:02.565Z,77.11
2019-03-08T10:38:02.602Z,77.11
2019-03-08T10:39:02.631Z,77.17
2019-03-08T10:40:02.661Z,77.36
2019-03-08T10:41:02.692Z,78.31
2019-03-08T10:42:02.723Z,78.59
2019-03-08T10:43:02.755Z,79.07
2019-03-08T10:44:08.940Z,80.12
2019-03-08T10:45:02.817Z,80.41
2019-03-08T10:46:02.842Z,80.02
2019-03-08T10:47:02.877Z,80.12
2019-03-08T10:48:02.903Z,80.94
2019-03-08T10:49:03.691Z,81.13
2019-03-08T10:50:02.989Z,81.84
2019-03-08T10:51:02.995Z,81.36
2019-03-08T10:52:03.024Z,79.91
2019-03-08T10:53:03.061Z,75.78
2019-03-08T10:54:03.081Z,71.28
2019-03-08T10:55:03.115Z,70.17
2019-03-08T10:56:03.140Z,67.94
2019-03-08T10:57:03.170Z,65.74
2019-03-08T10:58:03.200Z,66.06
2019-03-08T10:59:03.234Z,68.32
2019-03-08T11:00:03.265Z,71.75
2019-03-08T11:01:03.292Z,73.94
2019-03-08T11:02:03.317Z,73.94
2019-03-08T11:03:03.349Z,74.77
2019-03-08T11:04:03.377Z,76.01
2019-03-08T11:05:03.407Z,76.44
2019-03-08T11:06:03.434Z,77.01
2019-03-08T11:07:04.063Z,76.42
2019-03-08T11:08:03.502Z,72.43
2019-03-08T11:09:03.524Z,68.84
2019-03-08T11:10:03.551Z,68.41
2019-03-08T11:11:06.622Z,68.16
2019-03-08T11:12:03.611Z,66.83
2019-03-08T11:13:03.639Z,67.08
2019-03-08T11:14:03.676Z,70.10
2019-03-08T11:15:03.703Z,74.52
2019-03-08T11:16:03.730Z,78.39
2019-03-08T11:17:03.760Z,79.61
2019-03-08T11:18:03.790Z,76.54
2019-03-08T11:19:08.797Z,73.17
2019-03-08T11:20:03.846Z,71.73
2019-03-08T11:21:03.877Z,70.91
2019-03-08T11:22:03.909Z,70.11
2019-03-08T11:23:03.938Z,71.36
2019-03-08T11:24:03.975Z,71.13
2019-03-08T11:25:08.231Z,71.36
2019-03-08T11:26:04.027Z,70.09
2019-03-08T11:27:05.163Z,68.55
2019-03-08T11:28:04.092Z,68.04
2019-03-08T11:29:04.124Z,67.37
2019-03-08T11:30:04.155Z,70.17
2019-03-08T11:31:04.193Z,72.24
2019-03-08T11:32:04.218Z,73.83
2019-03-08T11:33:04.247Z,75.03
2019-03-08T11:34:04.280Z,75.93
2019-03-08T11:35:04.309Z,76.84
2019-03-08T11:36:04.342Z,77.13
2019-03-08T11:37:04.382Z,77.28
2019-03-08T11:38:04.404Z,78.43
2019-03-08T11:39:04.437Z,77.30
2019-03-08T11:40:04.469Z,73.39
2019-03-08T11:41:04.496Z,71.25
2019-03-08T11:42:04.531Z,70.67
2019-03-08T11:43:04.565Z,70.77
2019-03-08T11:44:04.599Z,70.64
2019-03-08T11:45:04.626Z,71.75
2019-03-08T11:46:04.651Z,72.13
2019-03-08T11:47:04.707Z,72.03
2019-03-08T11:48:04.719Z,71.81
2019-03-08T11:49:04.749Z,73.05
2019-03-08T11:50:04.782Z,73.01
2019-03-08T11:51:04.805Z,73.77
2019-03-08T11:52:04.839Z,74.73
2019-03-08T11:53:04.863Z,75.30
2019-03-08T11:54:04.893Z,75.45
2019-03-08T11:55:04.922Z,75.78
2019-03-08T11:56:08.992Z,75.96
2019-03-08T11:57:04.982Z,77.20
2019-03-08T11:58:05.008Z,83.36
2019-03-08T11:59:05.038Z,87.03
2019-03-08T12:00:05.069Z,91.65
2019-03-08T12:01:05.101Z,95.79
2019-03-08T12:02:05.670Z,98.74
2019-03-08T12:03:05.154Z,99.99
2019-03-08T12:04:05.184Z,99.99
2019-03-08T12:05:05.211Z,99.99
2019-03-08T12:06:05.238Z,99.99
2019-03-08T12:07:05.267Z,99.99
2019-03-08T12:08:05.300Z,99.99
2019-03-08T12:09:05.322Z,99.99
2019-03-08T12:10:05.350Z,99.99
2019-03-08T12:11:05.376Z,99.99
2019-03-08T12:12:05.402Z,99.99
2019-03-08T12:13:05.430Z,99.99
2019-03-08T12:14:05.457Z,99.99
2019-03-08T12:15:05.488Z,99.99
2019-03-08T12:16:05.514Z,99.99
2019-03-08T12:17:05.540Z,99.99
2019-03-08T12:18:05.566Z,99.99
2019-03-08T12:19:05.594Z,99.99
2019-03-08T12:20:05.618Z,99.99
2019-03-08T12:21:05.651Z,99.99
2019-03-08T12:22:05.676Z,99.99
2019-03-08T12:23:05.708Z,99.46
2019-03-08T12:24:05.732Z,99.17
2019-03-08T12:25:05.753Z,99.99
2019-03-08T12:26:05.799Z,99.99
2019-03-08T12:27:05.807Z,99.99
2019-03-08T12:28:05.833Z,99.99
2019-03-08T12:29:05.867Z,99.99
2019-03-08T12:30:05.888Z,99.31
2019-03-08T12:31:05.915Z,99.27
2019-03-08T12:32:05.943Z,98.32
2019-03-08T12:33:05.968Z,95.98
2019-03-08T12:34:05.997Z,95.60
2019-03-08T12:35:06.018Z,95.89
2019-03-08T12:36:06.048Z,97.36
2019-03-08T12:37:06.074Z,97.17
2019-03-08T12:38:06.099Z,97.27
2019-03-08T12:39:06.134Z,98.32
2019-03-08T12:40:06.155Z,96.70
2019-03-08T12:41:06.182Z,96.03
2019-03-08T12:42:06.206Z,98.22
2019-03-08T12:43:08.285Z,97.98
2019-03-08T12:44:06.265Z,96.36
2019-03-08T12:45:06.289Z,96.46
2019-03-08T12:46:06.319Z,96.46
2019-03-08T12:47:06.342Z,98.27
2019-03-08T12:48:06.366Z,99.02
2019-03-08T12:49:06.390Z,99.79
2019-03-08T12:50:06.420Z,99.41
2019-03-08T12:51:06.445Z,99.12
2019-03-08T12:52:06.468Z,95.51
2019-03-08T12:53:06.498Z,92.79